sensor_id;sensor_type;location;lat;lon;timestamp;pressure;altitude;pressure_sealevel;temperature;humidity
9187;BME280;7273;48.902;9.410;2022-11-15T00:01:44;97810.94;;;12.44;72.54
9187;BME280;7273;48.902;9.410;2022-11-15T00:04:10;97805.53;;;12.44;72.62
9187;BME280;7273;48.902;9.410;2022-11-15T00:06:35;97803.63;;;12.45;72.75
9187;BME280;7273;48.902;9.410;2022-11-15T00:09:02;97805.75;;;12.48;72.29
9187;BME280;7273;48.902;9.410;2022-11-15T00:11:28;97801.38;;;12.52;72.52
9187;BME280;7273;48.902;9.410;2022-11-15T00:13:57;97800.84;;;12.50;72.59
9187;BME280;7273;48.902;9.410;2022-11-15T00:16:23;97798.94;;;12.50;72.63
9187;BME280;7273;48.902;9.410;2022-11-15T00:18:49;97794.53;;;12.54;72.55
9187;BME280;7273;48.902;9.410;2022-11-15T00:21:15;97798.06;;;12.55;72.34
9187;BME280;7273;48.902;9.410;2022-11-15T00:23:41;97803.47;;;12.55;72.36
9187;BME280;7273;48.902;9.410;2022-11-15T00:26:11;97795.03;;;12.56;72.70
9187;BME280;7273;48.902;9.410;2022-11-15T00:28:37;97793.44;;;12.55;72.65
9187;BME280;7273;48.902;9.410;2022-11-15T00:31:05;97804.28;;;12.55;72.63
9187;BME280;7273;48.902;9.410;2022-11-15T00:33:31;97805.91;;;12.56;72.75
9187;BME280;7273;48.902;9.410;2022-11-15T00:36:04;97797.75;;;12.56;72.56
9187;BME280;7273;48.902;9.410;2022-11-15T00:38:33;97809.72;;;12.55;72.81
9187;BME280;7273;48.902;9.410;2022-11-15T00:41:00;97804.59;;;12.54;72.77
9187;BME280;7273;48.902;9.410;2022-11-15T00:43:26;97801.97;;;12.49;73.35
9187;BME280;7273;48.902;9.410;2022-11-15T00:45:51;97796.53;;;12.49;73.00
9187;BME280;7273;48.902;9.410;2022-11-15T00:48:17;97792.78;;;12.45;73.18
9187;BME280;7273;48.902;9.410;2022-11-15T00:50:42;97791.75;;;12.41;73.21
9187;BME280;7273;48.902;9.410;2022-11-15T00:53:07;97789.03;;;12.41;73.16
9187;BME280;7273;48.902;9.410;2022-11-15T00:55:33;97788.56;;;12.39;73.15
9187;BME280;7273;48.902;9.410;2022-11-15T00:57:58;97788.03;;;12.37;72.89
9187;BME280;7273;48.902;9.410;2022-11-15T01:00:24;97779.09;;;12.36;73.15
9187;BME280;7273;48.902;9.410;2022-11-15T01:02:50;97781.28;;;12.34;73.18
9187;BME280;7273;48.902;9.410;2022-11-15T01:05:16;97786.50;;;12.31;73.07
9187;BME280;7273;48.902;9.410;2022-11-15T01:07:41;97783.78;;;12.31;73.40
9187;BME280;7273;48.902;9.410;2022-11-15T01:10:07;97771.31;;;12.30;73.14
9187;BME280;7273;48.902;9.410;2022-11-15T01:12:33;97773.50;;;12.28;73.45
9187;BME280;7273;48.902;9.410;2022-11-15T01:14:58;97772.50;;;12.24;73.39
9187;BME280;7273;48.902;9.410;2022-11-15T01:17:24;97756.75;;;12.26;73.22
9187;BME280;7273;48.902;9.410;2022-11-15T01:19:49;97759.84;;;12.19;73.37
9187;BME280;7273;48.902;9.410;2022-11-15T01:22:15;97755.41;;;12.23;73.24
9187;BME280;7273;48.902;9.410;2022-11-15T01:24:40;97750.28;;;12.22;73.38
9187;BME280;7273;48.902;9.410;2022-11-15T01:27:06;97749.47;;;12.21;73.13
9187;BME280;7273;48.902;9.410;2022-11-15T01:29:32;97739.22;;;12.18;73.09
9187;BME280;7273;48.902;9.410;2022-11-15T01:31:57;97741.94;;;12.18;72.97
9187;BME280;7273;48.902;9.410;2022-11-15T01:34:23;97737.47;;;12.08;73.09
9187;BME280;7273;48.902;9.410;2022-11-15T01:36:48;97743.41;;;12.10;72.99
9187;BME280;7273;48.902;9.410;2022-11-15T01:39:13;97740.72;;;12.10;73.15
9187;BME280;7273;48.902;9.410;2022-11-15T01:41:40;97740.50;;;12.07;72.92
9187;BME280;7273;48.902;9.410;2022-11-15T01:46:57;97737.34;;;12.00;72.61
9187;BME280;7273;48.902;9.410;2022-11-15T01:49:24;97747.16;;;11.96;72.83
9187;BME280;7273;48.902;9.410;2022-11-15T01:51:52;97739.69;;;11.88;71.05
9187;BME280;7273;48.902;9.410;2022-11-15T01:54:20;97738.06;;;11.87;72.52
9187;BME280;7273;48.902;9.410;2022-11-15T01:56:52;97742.47;;;11.83;72.74
9187;BME280;7273;48.902;9.410;2022-11-15T01:59:19;97730.06;;;11.77;72.66
9187;BME280;7273;48.902;9.410;2022-11-15T02:01:44;97731.53;;;11.69;72.89
9187;BME280;7273;48.902;9.410;2022-11-15T02:04:16;97725.09;;;11.65;73.01
9187;BME280;7273;48.902;9.410;2022-11-15T02:06:45;97732.47;;;11.60;73.02
9187;BME280;7273;48.902;9.410;2022-11-15T02:09:12;97725.50;;;11.54;73.23
9187;BME280;7273;48.902;9.410;2022-11-15T02:11:38;97721.16;;;11.53;73.09
9187;BME280;7273;48.902;9.410;2022-11-15T02:14:04;97712.22;;;11.52;73.13
9187;BME280;7273;48.902;9.410;2022-11-15T02:16:56;97718.53;;;11.48;73.15
9187;BME280;7273;48.902;9.410;2022-11-15T02:28:04;97701.91;;;11.54;72.74
9187;BME280;7273;48.902;9.410;2022-11-15T02:30:47;97704.34;;;11.56;72.70
9187;BME280;7273;48.902;9.410;2022-11-15T02:39:06;97700.09;;;11.50;73.03
9187;BME280;7273;48.902;9.410;2022-11-15T02:41:53;97699.50;;;11.53;72.70
9187;BME280;7273;48.902;9.410;2022-11-15T02:44:26;97696.28;;;11.51;72.88
9187;BME280;7273;48.902;9.410;2022-11-15T02:47:02;97694.97;;;11.48;72.91
9187;BME280;7273;48.902;9.410;2022-11-15T02:49:40;97690.44;;;11.44;73.53
9187;BME280;7273;48.902;9.410;2022-11-15T02:52:06;97686.50;;;11.31;73.93
9187;BME280;7273;48.902;9.410;2022-11-15T02:54:33;97684.09;;;11.30;74.35
9187;BME280;7273;48.902;9.410;2022-11-15T02:57:05;97682.31;;;11.20;74.43
9187;BME280;7273;48.902;9.410;2022-11-15T03:05:24;97675.66;;;10.65;75.85
9187;BME280;7273;48.902;9.410;2022-11-15T03:21:32;97665.03;;;10.17;77.21
9187;BME280;7273;48.902;9.410;2022-11-15T03:24:03;97666.13;;;10.16;77.30
9187;BME280;7273;48.902;9.410;2022-11-15T03:26:33;97664.28;;;10.06;77.46
9187;BME280;7273;48.902;9.410;2022-11-15T03:29:09;97676.97;;;10.11;77.16
9187;BME280;7273;48.902;9.410;2022-11-15T03:31:39;97667.59;;;9.98;77.37
9187;BME280;7273;48.902;9.410;2022-11-15T03:36:59;97662.84;;;9.85;77.46
9187;BME280;7273;48.902;9.410;2022-11-15T03:39:25;97664.47;;;9.81;77.74
9187;BME280;7273;48.902;9.410;2022-11-15T03:49:52;97653.88;;;9.51;78.20
9187;BME280;7273;48.902;9.410;2022-11-15T03:52:21;97642.00;;;9.52;78.52
9187;BME280;7273;48.902;9.410;2022-11-15T03:54:54;97648.75;;;9.49;78.35
9187;BME280;7273;48.902;9.410;2022-11-15T03:57:20;97646.63;;;9.46;77.94
9187;BME280;7273;48.902;9.410;2022-11-15T03:59:45;97642.88;;;9.42;78.19
9187;BME280;7273;48.902;9.410;2022-11-15T04:02:12;97640.50;;;9.36;78.31
9187;BME280;7273;48.902;9.410;2022-11-15T04:04:38;97634.59;;;9.29;78.18
9187;BME280;7273;48.902;9.410;2022-11-15T04:07:03;97634.06;;;9.22;78.11
9187;BME280;7273;48.902;9.410;2022-11-15T04:09:29;97635.16;;;9.21;78.53
9187;BME280;7273;48.902;9.410;2022-11-15T04:11:54;97630.03;;;9.24;78.48
9187;BME280;7273;48.902;9.410;2022-11-15T04:14:20;97629.72;;;9.31;78.38
9187;BME280;7273;48.902;9.410;2022-11-15T04:16:45;97620.53;;;9.32;78.40
9187;BME280;7273;48.902;9.410;2022-11-15T04:19:11;97622.34;;;9.41;77.85
9187;BME280;7273;48.902;9.410;2022-11-15T04:21:55;97636.06;;;9.50;77.72
9187;BME280;7273;48.902;9.410;2022-11-15T04:24:39;97624.13;;;9.56;77.29
9187;BME280;7273;48.902;9.410;2022-11-15T04:27:04;97630.31;;;9.62;76.77
9187;BME280;7273;48.902;9.410;2022-11-15T04:29:30;97636.78;;;9.66;76.78
9187;BME280;7273;48.902;9.410;2022-11-15T04:32:05;97631.06;;;9.72;76.81
9187;BME280;7273;48.902;9.410;2022-11-15T04:34:31;97633.50;;;9.74;76.55
9187;BME280;7273;48.902;9.410;2022-11-15T04:36:57;97627.00;;;9.75;76.26
9187;BME280;7273;48.902;9.410;2022-11-15T04:39:38;97621.78;;;9.83;76.21
9187;BME280;7273;48.902;9.410;2022-11-15T04:42:03;97627.19;;;9.83;76.02
9187;BME280;7273;48.902;9.410;2022-11-15T04:44:28;97624.47;;;9.88;76.13
9187;BME280;7273;48.902;9.410;2022-11-15T04:46:54;97615.81;;;9.86;76.06
9187;BME280;7273;48.902;9.410;2022-11-15T04:49:19;97615.28;;;9.84;76.20
9187;BME280;7273;48.902;9.410;2022-11-15T04:51:45;97619.34;;;9.87;76.33
9187;BME280;7273;48.902;9.410;2022-11-15T04:54:10;97613.41;;;9.85;76.15
9187;BME280;7273;48.902;9.410;2022-11-15T04:56:36;97617.25;;;9.79;76.28
9187;BME280;7273;48.902;9.410;2022-11-15T04:59:01;97617.28;;;9.74;76.30
9187;BME280;7273;48.902;9.410;2022-11-15T05:01:27;97609.97;;;9.74;76.59
9187;BME280;7273;48.902;9.410;2022-11-15T05:03:52;97607.09;;;9.66;76.35
9187;BME280;7273;48.902;9.410;2022-11-15T05:06:36;97598.19;;;9.65;76.60
9187;BME280;7273;48.902;9.410;2022-11-15T05:09:03;97613.03;;;9.63;76.37
9187;BME280;7273;48.902;9.410;2022-11-15T05:11:29;97614.13;;;9.62;76.72
9187;BME280;7273;48.902;9.410;2022-11-15T05:13:55;97603.66;;;9.55;76.46
9187;BME280;7273;48.902;9.410;2022-11-15T05:16:20;97602.03;;;9.54;76.85
9187;BME280;7273;48.902;9.410;2022-11-15T05:18:46;97594.72;;;9.54;76.64
9187;BME280;7273;48.902;9.410;2022-11-15T05:21:13;97597.44;;;9.54;76.74
9187;BME280;7273;48.902;9.410;2022-11-15T05:23:39;97599.09;;;9.50;76.62
9187;BME280;7273;48.902;9.410;2022-11-15T05:26:08;97598.03;;;9.46;76.76
9187;BME280;7273;48.902;9.410;2022-11-15T05:28:34;97606.97;;;9.42;76.96
9187;BME280;7273;48.902;9.410;2022-11-15T05:31:07;97600.75;;;9.41;77.00
9187;BME280;7273;48.902;9.410;2022-11-15T05:33:34;97597.81;;;9.38;77.12
9187;BME280;7273;48.902;9.410;2022-11-15T05:38:38;97588.09;;;9.42;77.33
9187;BME280;7273;48.902;9.410;2022-11-15T05:41:04;97589.13;;;9.46;77.17
9187;BME280;7273;48.902;9.410;2022-11-15T05:43:31;97588.31;;;9.50;77.15
9187;BME280;7273;48.902;9.410;2022-11-15T05:45:58;97583.69;;;9.51;77.33
9187;BME280;7273;48.902;9.410;2022-11-15T05:48:25;97583.41;;;9.52;77.39
9187;BME280;7273;48.902;9.410;2022-11-15T05:50:51;97584.78;;;9.50;77.14
9187;BME280;7273;48.902;9.410;2022-11-15T05:53:19;97575.84;;;9.54;77.20
9187;BME280;7273;48.902;9.410;2022-11-15T05:55:46;97579.06;;;9.57;76.89
9187;BME280;7273;48.902;9.410;2022-11-15T05:58:12;97580.16;;;9.56;77.03
9187;BME280;7273;48.902;9.410;2022-11-15T06:00:37;97580.34;;;9.64;76.89
9187;BME280;7273;48.902;9.410;2022-11-15T06:03:03;97575.97;;;9.73;76.43
9187;BME280;7273;48.902;9.410;2022-11-15T06:05:28;97575.94;;;9.78;76.10
9187;BME280;7273;48.902;9.410;2022-11-15T06:07:57;97577.25;;;9.81;76.06
9187;BME280;7273;48.902;9.410;2022-11-15T06:10:24;97570.16;;;9.90;75.90
9187;BME280;7273;48.902;9.410;2022-11-15T06:12:59;97575.50;;;9.95;75.70
9187;BME280;7273;48.902;9.410;2022-11-15T06:15:25;97568.97;;;10.01;75.60
9187;BME280;7273;48.902;9.410;2022-11-15T06:17:50;97572.97;;;10.08;75.21
9187;BME280;7273;48.902;9.410;2022-11-15T06:20:17;97579.72;;;10.11;75.47
9187;BME280;7273;48.902;9.410;2022-11-15T06:22:42;97581.84;;;10.14;75.28
9187;BME280;7273;48.902;9.410;2022-11-15T06:25:08;97585.59;;;10.18;75.04
9187;BME280;7273;48.902;9.410;2022-11-15T06:27:34;97586.63;;;10.22;75.16
9187;BME280;7273;48.902;9.410;2022-11-15T06:29:59;97591.00;;;10.18;75.25
9187;BME280;7273;48.902;9.410;2022-11-15T06:32:24;97588.28;;;10.18;75.29
9187;BME280;7273;48.902;9.410;2022-11-15T06:34:50;97587.81;;;10.11;75.31
9187;BME280;7273;48.902;9.410;2022-11-15T06:37:15;97584.34;;;10.00;75.90
9187;BME280;7273;48.902;9.410;2022-11-15T06:39:41;97590.38;;;9.92;76.07
9187;BME280;7273;48.902;9.410;2022-11-15T06:42:08;97588.53;;;9.88;76.36
9187;BME280;7273;48.902;9.410;2022-11-15T06:44:33;97581.72;;;9.62;76.77
9187;BME280;7273;48.902;9.410;2022-11-15T06:46:59;97575.91;;;9.44;76.78
9187;BME280;7273;48.902;9.410;2022-11-15T06:49:24;97582.97;;;9.40;77.13
9187;BME280;7273;48.902;9.410;2022-11-15T06:51:49;97585.94;;;9.39;77.30
9187;BME280;7273;48.902;9.410;2022-11-15T06:54:15;97589.31;;;9.21;77.26
9187;BME280;7273;48.902;9.410;2022-11-15T06:56:40;97593.09;;;9.15;78.13
9187;BME280;7273;48.902;9.410;2022-11-15T06:59:06;97590.16;;;9.16;78.03
9187;BME280;7273;48.902;9.410;2022-11-15T07:01:31;97592.09;;;9.01;77.92
9187;BME280;7273;48.902;9.410;2022-11-15T07:03:57;97593.22;;;8.95;78.01
9187;BME280;7273;48.902;9.410;2022-11-15T07:06:22;97597.88;;;8.74;78.56
9187;BME280;7273;48.902;9.410;2022-11-15T07:08:48;97596.81;;;8.75;78.84
9187;BME280;7273;48.902;9.410;2022-11-15T07:11:13;97597.59;;;8.76;78.84
9187;BME280;7273;48.902;9.410;2022-11-15T07:13:39;97602.50;;;8.74;78.42
9187;BME280;7273;48.902;9.410;2022-11-15T07:16:07;97592.28;;;8.66;78.86
9187;BME280;7273;48.902;9.410;2022-11-15T07:18:37;97601.97;;;8.67;79.15
9187;BME280;7273;48.902;9.410;2022-11-15T07:21:04;97594.44;;;8.64;79.05
9187;BME280;7273;48.902;9.410;2022-11-15T07:23:30;97601.16;;;8.66;79.05
9187;BME280;7273;48.902;9.410;2022-11-15T07:25:59;97599.56;;;8.60;78.93
9187;BME280;7273;48.902;9.410;2022-11-15T07:28:25;97601.75;;;8.53;78.81
9187;BME280;7273;48.902;9.410;2022-11-15T07:30:51;97598.00;;;8.54;78.72
9187;BME280;7273;48.902;9.410;2022-11-15T07:33:16;97604.16;;;8.55;79.03
9187;BME280;7273;48.902;9.410;2022-11-15T07:35:42;97595.28;;;8.54;79.28
9187;BME280;7273;48.902;9.410;2022-11-15T07:38:08;97603.09;;;8.56;78.85
9187;BME280;7273;48.902;9.410;2022-11-15T07:40:34;97601.75;;;8.53;79.26
9187;BME280;7273;48.902;9.410;2022-11-15T07:43:05;97613.63;;;8.47;79.07
9187;BME280;7273;48.902;9.410;2022-11-15T07:45:32;97607.69;;;8.50;79.27
9187;BME280;7273;48.902;9.410;2022-11-15T07:48:00;97605.78;;;8.56;79.64
9187;BME280;7273;48.902;9.410;2022-11-15T07:50:26;97607.13;;;8.58;79.03
9187;BME280;7273;48.902;9.410;2022-11-15T07:52:59;97600.38;;;8.61;79.44
9187;BME280;7273;48.902;9.410;2022-11-15T07:55:26;97600.91;;;8.63;79.45
9187;BME280;7273;48.902;9.410;2022-11-15T07:57:52;97602.50;;;8.74;79.65
9187;BME280;7273;48.902;9.410;2022-11-15T08:00:19;97606.22;;;8.83;79.31
9187;BME280;7273;48.902;9.410;2022-11-15T08:02:45;97595.38;;;8.93;79.15
9187;BME280;7273;48.902;9.410;2022-11-15T08:05:10;97592.94;;;9.01;79.00
9187;BME280;7273;48.902;9.410;2022-11-15T08:07:36;97586.13;;;9.09;79.30
9187;BME280;7273;48.902;9.410;2022-11-15T08:10:03;97590.16;;;9.16;78.98
9187;BME280;7273;48.902;9.410;2022-11-15T08:12:31;97580.38;;;9.25;78.44
9187;BME280;7273;48.902;9.410;2022-11-15T08:14:56;97570.81;;;9.38;78.48
9187;BME280;7273;48.902;9.410;2022-11-15T08:17:25;97584.25;;;9.48;78.41
9187;BME280;7273;48.902;9.410;2022-11-15T08:19:50;97576.34;;;9.62;78.51
9187;BME280;7273;48.902;9.410;2022-11-15T08:22:16;97575.41;;;9.76;78.69
9187;BME280;7273;48.902;9.410;2022-11-15T08:24:42;97566.06;;;9.92;78.71
9187;BME280;7273;48.902;9.410;2022-11-15T08:27:08;97567.56;;;10.08;78.89
9187;BME280;7273;48.902;9.410;2022-11-15T08:29:43;97566.56;;;10.28;78.51
9187;BME280;7273;48.902;9.410;2022-11-15T08:32:09;97565.56;;;10.47;78.21
9187;BME280;7273;48.902;9.410;2022-11-15T08:34:34;97571.00;;;10.66;77.77
9187;BME280;7273;48.902;9.410;2022-11-15T08:37:00;97571.75;;;10.90;77.56
9187;BME280;7273;48.902;9.410;2022-11-15T08:39:25;97563.63;;;11.32;77.37
9187;BME280;7273;48.902;9.410;2022-11-15T08:41:51;97556.69;;;11.77;77.06
9187;BME280;7273;48.902;9.410;2022-11-15T08:44:16;97560.84;;;12.88;76.28
9187;BME280;7273;48.902;9.410;2022-11-15T08:46:41;97558.34;;;12.91;76.71
9187;BME280;7273;48.902;9.410;2022-11-15T08:49:07;97548.97;;;12.97;76.87
9187;BME280;7273;48.902;9.410;2022-11-15T08:51:32;97544.84;;;13.00;76.79
9187;BME280;7273;48.902;9.410;2022-11-15T08:53:58;97544.34;;;12.98;76.93
9187;BME280;7273;48.902;9.410;2022-11-15T08:56:23;97542.06;;;12.91;76.45
9187;BME280;7273;48.902;9.410;2022-11-15T08:58:49;97546.28;;;12.84;76.76
9187;BME280;7273;48.902;9.410;2022-11-15T09:01:16;97543.16;;;12.90;76.59
9187;BME280;7273;48.902;9.410;2022-11-15T09:03:42;97542.47;;;13.34;76.02
9187;BME280;7273;48.902;9.410;2022-11-15T09:06:08;97532.06;;;13.49;76.59
9187;BME280;7273;48.902;9.410;2022-11-15T09:08:34;97529.16;;;13.68;76.50
9187;BME280;7273;48.902;9.410;2022-11-15T09:11:03;97534.00;;;13.71;76.26
9187;BME280;7273;48.902;9.410;2022-11-15T09:13:29;97537.44;;;13.63;76.46
9187;BME280;7273;48.902;9.410;2022-11-15T09:15:58;97523.56;;;13.65;76.67
9187;BME280;7273;48.902;9.410;2022-11-15T09:18:24;97523.56;;;13.65;76.36
9187;BME280;7273;48.902;9.410;2022-11-15T09:20:49;97527.03;;;13.65;76.29
9187;BME280;7273;48.902;9.410;2022-11-15T09:23:15;97520.06;;;13.50;76.65
9187;BME280;7273;48.902;9.410;2022-11-15T09:25:40;97522.78;;;13.50;76.65
9187;BME280;7273;48.902;9.410;2022-11-15T09:28:07;97522.47;;;13.52;76.59
9187;BME280;7273;48.902;9.410;2022-11-15T09:30:32;97527.91;;;13.52;76.95
9187;BME280;7273;48.902;9.410;2022-11-15T09:32:58;97514.31;;;13.52;76.89
9187;BME280;7273;48.902;9.410;2022-11-15T09:35:23;97522.97;;;13.54;76.75
9187;BME280;7273;48.902;9.410;2022-11-15T09:37:49;97520.25;;;13.54;76.25
9187;BME280;7273;48.902;9.410;2022-11-15T09:40:16;97521.38;;;13.53;76.29
9187;BME280;7273;48.902;9.410;2022-11-15T09:50:52;97503.41;;;13.66;76.16
9187;BME280;7273;48.902;9.410;2022-11-15T09:53:31;97506.56;;;13.81;76.00
9187;BME280;7273;48.902;9.410;2022-11-15T09:56:02;97503.09;;;13.89;75.72
9187;BME280;7273;48.902;9.410;2022-11-15T10:01:49;97501.63;;;14.14;75.40
9187;BME280;7273;48.902;9.410;2022-11-15T10:04:21;97500.19;;;14.16;75.67
9187;BME280;7273;48.902;9.410;2022-11-15T10:09:39;97504.06;;;14.24;75.33
9187;BME280;7273;48.902;9.410;2022-11-15T10:12:09;97497.06;;;14.31;74.90
9187;BME280;7273;48.902;9.410;2022-11-15T10:14:35;97499.63;;;14.28;74.87
9187;BME280;7273;48.902;9.410;2022-11-15T10:22:24;97496.19;;;14.53;74.25
9187;BME280;7273;48.902;9.410;2022-11-15T10:25:00;97493.19;;;14.63;74.17
9187;BME280;7273;48.902;9.410;2022-11-15T10:27:26;97488.38;;;14.68;74.42
9187;BME280;7273;48.902;9.410;2022-11-15T10:29:51;97482.16;;;14.76;74.21
9187;BME280;7273;48.902;9.410;2022-11-15T10:32:20;97480.75;;;14.88;74.12
9187;BME280;7273;48.902;9.410;2022-11-15T10:34:47;97476.25;;;14.92;74.03
9187;BME280;7273;48.902;9.410;2022-11-15T10:37:13;97476.09;;;14.88;74.15
9187;BME280;7273;48.902;9.410;2022-11-15T10:39:38;97466.00;;;14.80;73.90
9187;BME280;7273;48.902;9.410;2022-11-15T10:42:26;97464.75;;;14.86;73.53
9187;BME280;7273;48.902;9.410;2022-11-15T10:44:52;97460.22;;;14.81;73.96
9187;BME280;7273;48.902;9.410;2022-11-15T10:47:23;97455.28;;;14.92;73.96
9187;BME280;7273;48.902;9.410;2022-11-15T10:50:00;97456.09;;;14.93;73.93
9187;BME280;7273;48.902;9.410;2022-11-15T10:52:27;97443.28;;;14.93;73.74
9187;BME280;7273;48.902;9.410;2022-11-15T10:55:01;97446.97;;;14.97;73.89
9187;BME280;7273;48.902;9.410;2022-11-15T10:57:31;97439.44;;;14.86;73.79
9187;BME280;7273;48.902;9.410;2022-11-15T11:02:56;97435.75;;;14.90;73.62
9187;BME280;7273;48.902;9.410;2022-11-15T11:10:36;97429.66;;;14.93;73.83
9187;BME280;7273;48.902;9.410;2022-11-15T11:13:22;97430.94;;;14.96;73.68
9187;BME280;7273;48.902;9.410;2022-11-15T11:15:53;97431.59;;;14.93;74.04
9187;BME280;7273;48.902;9.410;2022-11-15T11:18:26;97428.88;;;14.93;73.57
9187;BME280;7273;48.902;9.410;2022-11-15T11:21:14;97426.44;;;14.91;72.98
9187;BME280;7273;48.902;9.410;2022-11-15T11:23:56;97427.75;;;14.94;73.20
9187;BME280;7273;48.902;9.410;2022-11-15T11:29:08;97427.41;;;14.95;72.89
9187;BME280;7273;48.902;9.410;2022-11-15T11:37:24;97423.56;;;14.96;72.74
9187;BME280;7273;48.902;9.410;2022-11-15T11:46:38;97413.97;;;15.07;72.49
9187;BME280;7273;48.902;9.410;2022-11-15T11:53:49;97404.50;;;15.13;72.88
9187;BME280;7273;48.902;9.410;2022-11-15T11:56:37;97401.63;;;15.10;72.61
9187;BME280;7273;48.902;9.410;2022-11-15T11:59:35;97396.66;;;15.20;72.26
9187;BME280;7273;48.902;9.410;2022-11-15T12:02:15;97380.81;;;15.14;72.36
9187;BME280;7273;48.902;9.410;2022-11-15T12:04:47;97385.28;;;15.18;72.51
9187;BME280;7273;48.902;9.410;2022-11-15T12:07:24;97377.44;;;15.25;72.41
9187;BME280;7273;48.902;9.410;2022-11-15T12:10:01;97382.38;;;15.32;72.63
9187;BME280;7273;48.902;9.410;2022-11-15T12:12:49;97366.38;;;15.22;72.13
9187;BME280;7273;48.902;9.410;2022-11-15T12:15:23;97375.19;;;15.19;72.55
9187;BME280;7273;48.902;9.410;2022-11-15T12:17:50;97370.53;;;15.19;72.74
9187;BME280;7273;48.902;9.410;2022-11-15T12:20:17;97363.66;;;15.22;72.62
9187;BME280;7273;48.902;9.410;2022-11-15T12:25:23;97352.09;;;15.33;72.40
9187;BME280;7273;48.902;9.410;2022-11-15T12:28:08;97351.75;;;15.35;72.21
9187;BME280;7273;48.902;9.410;2022-11-15T12:31:05;97353.19;;;15.49;72.37
9187;BME280;7273;48.902;9.410;2022-11-15T12:33:42;97355.41;;;15.56;72.81
9187;BME280;7273;48.902;9.410;2022-11-15T12:39:12;97353.81;;;15.55;72.96
9187;BME280;7273;48.902;9.410;2022-11-15T12:41:42;97351.09;;;15.55;73.26
9187;BME280;7273;48.902;9.410;2022-11-15T12:59:52;97345.91;;;15.70;72.04
9187;BME280;7273;48.902;9.410;2022-11-15T13:04:49;97333.59;;;15.64;70.00
9187;BME280;7273;48.902;9.410;2022-11-15T13:09:58;97329.41;;;15.67;72.26
9187;BME280;7273;48.902;9.410;2022-11-15T13:14:59;97325.41;;;15.64;72.44
9187;BME280;7273;48.902;9.410;2022-11-15T13:17:34;97322.19;;;15.62;72.24
9187;BME280;7273;48.902;9.410;2022-11-15T13:22:38;97309.84;;;15.65;72.12
9187;BME280;7273;48.902;9.410;2022-11-15T13:27:55;97304.25;;;15.61;72.18
9187;BME280;7273;48.902;9.410;2022-11-15T13:30:29;97298.34;;;15.59;72.25
9187;BME280;7273;48.902;9.410;2022-11-15T13:32:55;97294.78;;;15.59;72.32
9187;BME280;7273;48.902;9.410;2022-11-15T13:35:28;97290.22;;;15.42;72.28
9187;BME280;7273;48.902;9.410;2022-11-15T13:37:56;97286.69;;;15.42;72.06
9187;BME280;7273;48.902;9.410;2022-11-15T13:40:33;97282.84;;;15.43;71.95
9187;BME280;7273;48.902;9.410;2022-11-15T13:42:59;97279.78;;;15.36;72.06
9187;BME280;7273;48.902;9.410;2022-11-15T13:45:25;97276.13;;;15.32;71.93
9187;BME280;7273;48.902;9.410;2022-11-15T13:47:56;97271.59;;;15.36;71.63
9187;BME280;7273;48.902;9.410;2022-11-15T13:50:26;97280.44;;;15.33;71.71
9187;BME280;7273;48.902;9.410;2022-11-15T13:52:53;97268.06;;;15.35;71.27
9187;BME280;7273;48.902;9.410;2022-11-15T13:55:23;97262.50;;;15.32;71.31
9187;BME280;7273;48.902;9.410;2022-11-15T13:58:00;97267.63;;;15.33;71.09
9187;BME280;7273;48.902;9.410;2022-11-15T14:00:39;97264.41;;;15.31;71.08
9187;BME280;7273;48.902;9.410;2022-11-15T14:03:19;97254.69;;;15.22;71.19
9187;BME280;7273;48.902;9.410;2022-11-15T14:06:03;97255.47;;;15.22;70.91
9187;BME280;7273;48.902;9.410;2022-11-15T14:08:31;97257.41;;;15.22;71.08
9187;BME280;7273;48.902;9.410;2022-11-15T14:11:18;97247.50;;;15.17;70.76
9187;BME280;7273;48.902;9.410;2022-11-15T14:14:11;97235.31;;;15.15;70.73
9187;BME280;7273;48.902;9.410;2022-11-15T14:16:40;97239.34;;;15.09;71.16
9187;BME280;7273;48.902;9.410;2022-11-15T14:19:09;97236.63;;;15.09;71.21
9187;BME280;7273;48.902;9.410;2022-11-15T14:21:35;97228.47;;;15.09;71.28
9187;BME280;7273;48.902;9.410;2022-11-15T14:24:17;97231.34;;;15.04;71.55
9187;BME280;7273;48.902;9.410;2022-11-15T14:26:43;97228.97;;;15.02;71.67
9187;BME280;7273;48.902;9.410;2022-11-15T14:29:41;97222.41;;;14.95;72.01
9187;BME280;7273;48.902;9.410;2022-11-15T14:32:16;97214.72;;;14.88;72.27
9187;BME280;7273;48.902;9.410;2022-11-15T14:34:42;97210.41;;;14.87;72.11
9187;BME280;7273;48.902;9.410;2022-11-15T14:37:18;97208.69;;;14.82;72.12
9187;BME280;7273;48.902;9.410;2022-11-15T14:39:44;97205.47;;;14.80;72.17
9187;BME280;7273;48.902;9.410;2022-11-15T14:42:09;97206.13;;;14.77;72.19
9187;BME280;7273;48.902;9.410;2022-11-15T14:44:35;97210.59;;;14.73;72.35
9187;BME280;7273;48.902;9.410;2022-11-15T14:47:00;97209.66;;;14.69;72.35
9187;BME280;7273;48.902;9.410;2022-11-15T14:49:25;97203.09;;;14.62;72.87
9187;BME280;7273;48.902;9.410;2022-11-15T14:51:51;97199.44;;;14.49;72.96
9187;BME280;7273;48.902;9.410;2022-11-15T14:54:16;97199.63;;;14.44;73.71
9187;BME280;7273;48.902;9.410;2022-11-15T14:56:42;97203.63;;;14.38;73.74
9187;BME280;7273;48.902;9.410;2022-11-15T14:59:07;97195.00;;;14.28;73.89
9187;BME280;7273;48.902;9.410;2022-11-15T15:01:33;97198.47;;;14.20;73.64
9187;BME280;7273;48.902;9.410;2022-11-15T15:03:58;97195.59;;;14.16;74.16
9187;BME280;7273;48.902;9.410;2022-11-15T15:06:25;97188.09;;;14.05;74.36
9187;BME280;7273;48.902;9.410;2022-11-15T15:08:51;97175.94;;;14.02;74.49
9187;BME280;7273;48.902;9.410;2022-11-15T15:11:26;97170.03;;;14.00;74.34
9187;BME280;7273;48.902;9.410;2022-11-15T15:13:53;97166.03;;;13.98;74.08
9187;BME280;7273;48.902;9.410;2022-11-15T15:16:21;97157.38;;;13.87;74.42
9187;BME280;7273;48.902;9.410;2022-11-15T15:18:46;97159.63;;;13.85;74.24
9187;BME280;7273;48.902;9.410;2022-11-15T15:21:22;97148.91;;;13.80;74.47
9187;BME280;7273;48.902;9.410;2022-11-15T15:23:48;97147.47;;;13.74;74.88
9187;BME280;7273;48.902;9.410;2022-11-15T15:26:14;97137.25;;;13.71;74.87
9187;BME280;7273;48.902;9.410;2022-11-15T15:28:39;97145.22;;;13.68;74.84
9187;BME280;7273;48.902;9.410;2022-11-15T15:31:05;97134.19;;;13.64;74.64
9187;BME280;7273;48.902;9.410;2022-11-15T15:33:31;97129.72;;;13.60;74.57
9187;BME280;7273;48.902;9.410;2022-11-15T15:35:57;97125.84;;;13.52;74.74
9187;BME280;7273;48.902;9.410;2022-11-15T15:38:22;97128.91;;;13.50;74.77
9187;BME280;7273;48.902;9.410;2022-11-15T15:40:48;97131.16;;;13.48;74.34
9187;BME280;7273;48.902;9.410;2022-11-15T15:43:13;97128.44;;;13.48;74.30
9187;BME280;7273;48.902;9.410;2022-11-15T15:45:40;97131.13;;;13.40;74.57